createdAt,value
2022-12-24T00:00:13.003Z,79.65
2022-12-24T00:01:16.679Z,79.66
2022-12-24T00:02:18.821Z,79.41
2022-12-24T00:03:21.434Z,79.60
2022-12-24T00:04:24.089Z,79.30
2022-12-24T00:05:25.685Z,79.69
2022-12-24T00:06:28.224Z,79.78
2022-12-24T00:07:29.799Z,79.56
2022-12-24T00:08:32.287Z,79.80
2022-12-24T00:09:33.798Z,79.57
2022-12-24T00:10:36.264Z,79.36
2022-12-24T00:11:37.798Z,79.48
2022-12-24T00:12:41.662Z,79.30
2022-12-24T00:13:43.202Z,79.37
2022-12-24T00:14:45.701Z,79.54
2022-12-24T00:15:47.566Z,79.23
2022-12-24T00:16:50.132Z,79.42
2022-12-24T00:17:51.697Z,79.40
2022-12-24T00:18:54.205Z,79.42
2022-12-24T00:19:55.872Z,79.43
2022-12-24T00:20:58.802Z,79.55
2022-12-24T00:22:04.444Z,79.47
2022-12-24T00:23:07.263Z,79.51
2022-12-24T00:24:08.864Z,79.31
2022-12-24T00:25:11.412Z,79.51
2022-12-24T00:26:13.965Z,79.44
2022-12-24T00:27:24.113Z,79.31
2022-12-24T00:28:37.019Z,79.46
2022-12-24T00:29:39.571Z,79.62
2022-12-24T00:30:42.927Z,79.44
2022-12-24T00:31:48.699Z,79.40
2022-12-24T00:32:50.253Z,79.55
2022-12-24T00:33:53.082Z,79.57
2022-12-24T00:34:55.088Z,79.31
2022-12-24T00:35:57.818Z,79.65
2022-12-24T00:36:59.449Z,79.54
2022-12-24T00:38:03.690Z,79.78
2022-12-24T00:39:05.213Z,79.47
2022-12-24T00:40:08.921Z,79.50
2022-12-24T00:41:24.457Z,79.72
2022-12-24T00:42:27.524Z,79.59
2022-12-24T00:43:30.030Z,79.62
2022-12-24T00:44:33.838Z,79.85
2022-12-24T00:45:35.353Z,79.88
2022-12-24T00:46:39.933Z,79.86
2022-12-24T00:47:41.997Z,79.83
2022-12-24T00:48:44.496Z,79.94
2022-12-24T00:49:46.075Z,80.02
2022-12-24T00:50:48.549Z,80.06
2022-12-24T00:51:50.473Z,80.14
2022-12-24T00:52:53.025Z,80.10
2022-12-24T00:53:54.754Z,80.10
2022-12-24T00:54:57.206Z,80.34
2022-12-24T00:55:58.705Z,80.43
2022-12-24T00:57:02.253Z,80.39
2022-12-24T00:58:03.786Z,80.41
2022-12-24T00:59:06.363Z,80.36
2022-12-24T01:00:10.483Z,80.47
2022-12-24T01:01:13.788Z,80.51
2022-12-24T01:02:15.466Z,80.45
2022-12-24T01:03:18.527Z,80.53
2022-12-24T01:04:39.139Z,80.55
2022-12-24T01:05:41.069Z,80.69
2022-12-24T01:06:43.323Z,80.82
2022-12-24T01:07:45.870Z,80.72
2022-12-24T01:08:55.376Z,80.59
2022-12-24T01:10:09.070Z,80.43
2022-12-24T01:11:13.475Z,80.48
2022-12-24T01:12:15.996Z,80.51
2022-12-24T01:13:23.476Z,80.74
2022-12-24T01:14:25.979Z,80.69
2022-12-24T01:15:29.173Z,80.76
2022-12-24T01:16:31.850Z,80.73
2022-12-24T01:17:34.937Z,80.81
2022-12-24T01:18:37.492Z,80.88
2022-12-24T01:19:39.046Z,80.81
2022-12-24T01:20:41.664Z,80.99
2022-12-24T01:21:43.200Z,80.64
2022-12-24T01:22:46.446Z,80.86
2022-12-24T01:23:48.979Z,81.05
2022-12-24T01:24:51.516Z,81.04
2022-12-24T01:25:53.240Z,81.11
2022-12-24T01:26:55.734Z,81.05
2022-12-24T01:27:57.316Z,80.92
2022-12-24T01:29:00.655Z,81.05
2022-12-24T01:30:02.148Z,81.28
2022-12-24T01:31:11.654Z,81.30
2022-12-24T01:32:13.230Z,81.35
2022-12-24T01:33:15.881Z,81.64
2022-12-24T01:34:17.459Z,81.46
2022-12-24T01:35:19.960Z,81.67
2022-12-24T01:36:21.490Z,81.67
2022-12-24T01:37:24.718Z,81.76
2022-12-24T01:38:26.257Z,81.96
2022-12-24T01:39:28.753Z,82.01
2022-12-24T01:40:49.008Z,81.98
2022-12-24T01:42:09.443Z,82.25
2022-12-24T01:43:26.299Z,81.99
2022-12-24T01:44:36.156Z,82.36
2022-12-24T01:45:48.443Z,82.66
2022-12-24T01:46:57.415Z,82.66
2022-12-24T01:47:59.047Z,82.40
2022-12-24T01:49:04.816Z,83.04
2022-12-24T01:50:16.588Z,82.94
2022-12-24T01:51:27.527Z,82.84
2022-12-24T01:52:35.167Z,82.82
2022-12-24T01:53:40.291Z,83.11
2022-12-24T01:54:45.992Z,83.26
2022-12-24T01:55:49.468Z,83.26
2022-12-24T01:56:55.172Z,83.42
2022-12-24T01:58:00.665Z,83.43
2022-12-24T01:59:04.991Z,83.45
2022-12-24T02:00:12.344Z,83.54
2022-12-24T02:01:14.504Z,83.57
2022-12-24T02:02:20.261Z,83.67
2022-12-24T02:03:22.226Z,83.70
2022-12-24T02:04:31.466Z,83.66
2022-12-24T02:05:40.568Z,83.96
2022-12-24T02:06:43.549Z,83.68
2022-12-24T02:07:46.356Z,83.88
2022-12-24T02:08:49.337Z,84.11
2022-12-24T02:09:56.015Z,83.91
2022-12-24T02:10:58.501Z,84.00
2022-12-24T02:12:00.846Z,83.91
2022-12-24T02:13:05.036Z,84.11
2022-12-24T02:14:06.777Z,84.03
2022-12-24T02:15:12.743Z,84.05
2022-12-24T02:16:28.167Z,84.06
2022-12-24T02:17:38.277Z,83.99
2022-12-24T02:18:49.823Z,83.98
2022-12-24T02:20:29.368Z,84.06
2022-12-24T02:21:43.358Z,84.11
2022-12-24T02:23:06.591Z,84.08
2022-12-24T02:24:42.378Z,83.88
2022-12-24T02:25:57.999Z,84.10
2022-12-24T02:27:19.133Z,84.22
2022-12-24T02:28:38.073Z,84.39
2022-12-24T02:30:06.377Z,84.11
2022-12-24T02:31:16.689Z,84.06
2022-12-24T02:32:24.318Z,84.24
2022-12-24T02:33:33.838Z,84.23
2022-12-24T02:34:40.732Z,84.35
2022-12-24T02:35:50.299Z,84.30
2022-12-24T02:36:58.554Z,84.20
2022-12-24T02:38:06.204Z,84.16
2022-12-24T02:39:14.204Z,84.29
2022-12-24T02:40:22.860Z,84.27
2022-12-24T02:41:27.043Z,84.16
2022-12-24T02:42:36.972Z,84.30
2022-12-24T02:43:42.307Z,84.16
2022-12-24T02:44:50.806Z,84.14
2022-12-24T02:45:59.489Z,84.50
2022-12-24T02:47:05.494Z,84.40
2022-12-24T02:48:07.674Z,84.41
2022-12-24T02:49:10.405Z,84.35
2022-12-24T02:50:14.517Z,84.48
2022-12-24T02:51:17.533Z,84.64
2022-12-24T02:52:33.517Z,84.56
2022-12-24T02:53:36.754Z,84.16
2022-12-24T02:54:38.298Z,84.27
2022-12-24T02:55:47.356Z,84.43
2022-12-24T02:57:05.356Z,84.59
2022-12-24T02:58:24.059Z,84.40
2022-12-24T02:59:51.522Z,84.54
2022-12-24T03:01:16.170Z,84.34
2022-12-24T03:02:27.471Z,84.28
2022-12-24T03:03:39.172Z,84.40
2022-12-24T03:04:46.571Z,84.39
2022-12-24T03:05:52.309Z,84.42
2022-12-24T03:07:00.623Z,84.35
2022-12-24T03:08:09.725Z,84.40
2022-12-24T03:09:24.352Z,84.36
2022-12-24T03:10:32.868Z,84.57
2022-12-24T03:11:36.779Z,84.42
2022-12-24T03:12:43.494Z,84.58
2022-12-24T03:13:48.278Z,84.54
2022-12-24T03:14:50.470Z,84.71
2022-12-24T03:15:53.651Z,84.42
2022-12-24T03:16:58.329Z,84.60
2022-12-24T03:18:03.278Z,84.59
2022-12-24T03:19:05.775Z,84.43
2022-12-24T03:20:10.695Z,84.46
2022-12-24T03:21:16.351Z,84.46
2022-12-24T03:22:19.497Z,84.16
2022-12-24T03:23:21.199Z,84.39
2022-12-24T03:24:23.727Z,84.14
2022-12-24T03:25:27.023Z,84.14
2022-12-24T03:26:31.892Z,84.36
2022-12-24T03:27:35.385Z,84.28
2022-12-24T03:28:42.002Z,83.92
2022-12-24T03:29:45.704Z,84.14
2022-12-24T03:30:49.582Z,84.02
2022-12-24T03:31:53.332Z,84.04
2022-12-24T03:32:57.281Z,84.10
2022-12-24T03:33:58.797Z,84.01
2022-12-24T03:35:01.783Z,83.80
2022-12-24T03:36:04.321Z,84.00
2022-12-24T03:37:07.846Z,84.21
2022-12-24T03:38:09.859Z,84.20
2022-12-24T03:39:21.575Z,84.06
2022-12-24T03:40:23.113Z,84.12
2022-12-24T03:41:25.584Z,84.08
2022-12-24T03:42:27.168Z,84.06
2022-12-24T03:43:29.895Z,83.82
2022-12-24T03:44:31.434Z,84.13
2022-12-24T03:45:41.088Z,84.18
2022-12-24T03:46:43.004Z,84.08
2022-12-24T03:47:45.879Z,84.13
2022-12-24T03:48:49.492Z,84.41
2022-12-24T03:49:52.035Z,84.35
2022-12-24T03:50:53.585Z,84.28
2022-12-24T03:51:56.077Z,84.30
2022-12-24T03:52:57.625Z,84.41
2022-12-24T03:54:05.234Z,84.47
2022-12-24T03:55:07.939Z,84.64
2022-12-24T03:56:12.694Z,84.57
2022-12-24T03:57:14.238Z,84.53
2022-12-24T03:58:16.698Z,84.61
2022-12-24T03:59:18.382Z,84.57
2022-12-24T04:00:21.721Z,84.69
2022-12-24T04:01:23.399Z,84.65
2022-12-24T04:02:26.231Z,84.54
2022-12-24T04:03:27.939Z,84.71
2022-12-24T04:04:33.436Z,84.90
2022-12-24T04:05:34.996Z,84.96
2022-12-24T04:06:37.542Z,84.98
2022-12-24T04:07:39.333Z,84.89
2022-12-24T04:08:42.026Z,84.92
2022-12-24T04:09:43.551Z,84.95
2022-12-24T04:10:46.043Z,84.96
2022-12-24T04:11:47.577Z,84.82
2022-12-24T04:12:50.052Z,84.90
2022-12-24T04:13:51.574Z,84.94
2022-12-24T04:14:54.061Z,84.94
2022-12-24T04:15:59.722Z,84.82
2022-12-24T04:17:02.381Z,84.88
2022-12-24T04:18:04.265Z,84.78
2022-12-24T04:19:06.754Z,84.92
2022-12-24T04:20:11.240Z,85.01
2022-12-24T04:21:13.802Z,84.74
2022-12-24T04:22:15.368Z,84.85
2022-12-24T04:23:17.865Z,84.83
2022-12-24T04:24:19.380Z,85.13
2022-12-24T04:25:21.849Z,84.84
2022-12-24T04:26:23.498Z,84.91
2022-12-24T04:27:30.324Z,84.82
2022-12-24T04:28:42.990Z,84.82
2022-12-24T04:29:45.868Z,84.92
2022-12-24T04:30:58.893Z,85.02
2022-12-24T04:32:01.464Z,84.82
2022-12-24T04:33:03.145Z,85.04
2022-12-24T04:34:05.607Z,84.82
2022-12-24T04:35:07.725Z,84.98
2022-12-24T04:36:14.558Z,85.06
2022-12-24T04:37:17.121Z,84.79
2022-12-24T04:38:18.816Z,84.84
2022-12-24T04:39:21.379Z,84.76
2022-12-24T04:40:22.913Z,84.66
2022-12-24T04:41:26.474Z,84.96
2022-12-24T04:42:28.017Z,84.81
2022-12-24T04:43:31.274Z,84.80
2022-12-24T04:44:32.771Z,84.94
2022-12-24T04:45:35.722Z,85.03
2022-12-24T04:46:37.258Z,85.09
2022-12-24T04:47:39.830Z,85.14
2022-12-24T04:48:41.628Z,85.13
2022-12-24T04:49:44.109Z,85.20
2022-12-24T04:50:45.665Z,85.12
2022-12-24T04:51:49.531Z,85.24
2022-12-24T04:52:51.115Z,85.27
2022-12-24T04:53:53.999Z,85.56
2022-12-24T04:54:55.509Z,85.54
2022-12-24T04:55:58.581Z,85.49
2022-12-24T04:57:00.117Z,85.41
2022-12-24T04:58:02.593Z,85.45
2022-12-24T04:59:04.131Z,85.70
2022-12-24T05:00:08.299Z,85.37
2022-12-24T05:01:14.404Z,85.93
2022-12-24T05:02:17.177Z,85.64
2022-12-24T05:03:18.988Z,85.51
2022-12-24T05:04:21.976Z,85.39
2022-12-24T05:05:23.792Z,85.56
2022-12-24T05:06:28.606Z,85.65
2022-12-24T05:07:31.702Z,85.53
2022-12-24T05:08:37.452Z,85.71
2022-12-24T05:09:49.023Z,85.44
2022-12-24T05:10:56.713Z,85.32
2022-12-24T05:11:58.288Z,85.62
2022-12-24T05:13:01.153Z,85.58
2022-12-24T05:14:02.892Z,85.68
2022-12-24T05:15:06.267Z,85.49
2022-12-24T05:16:08.309Z,85.72
2022-12-24T05:17:10.977Z,85.49
2022-12-24T05:18:12.644Z,85.58
2022-12-24T05:19:15.500Z,85.36
2022-12-24T05:20:17.319Z,85.73
2022-12-24T05:21:22.389Z,85.49
2022-12-24T05:22:42.852Z,85.60
2022-12-24T05:24:04.290Z,85.46
2022-12-24T05:25:24.580Z,85.50
2022-12-24T05:26:30.038Z,85.67
2022-12-24T05:27:31.757Z,85.79
2022-12-24T05:28:34.258Z,85.42
2022-12-24T05:29:35.775Z,85.47
2022-12-24T05:30:38.289Z,85.49
2022-12-24T05:31:40.948Z,85.62
2022-12-24T05:32:43.509Z,85.57
2022-12-24T05:33:45.100Z,85.38
2022-12-24T05:34:47.602Z,85.26
2022-12-24T05:35:51.516Z,85.24
2022-12-24T05:36:54.000Z,85.61
2022-12-24T05:37:57.693Z,85.38
2022-12-24T05:39:01.670Z,85.41
2022-12-24T05:40:03.665Z,85.37
2022-12-24T05:41:06.993Z,85.29
2022-12-24T05:42:08.850Z,85.50
2022-12-24T05:43:11.320Z,85.40
2022-12-24T05:44:16.042Z,85.35
2022-12-24T05:45:24.046Z,85.30
2022-12-24T05:46:26.180Z,85.38
2022-12-24T05:47:28.735Z,85.50
2022-12-24T05:48:30.636Z,85.43
2022-12-24T05:49:37.091Z,85.50
2022-12-24T05:50:40.156Z,85.40
2022-12-24T05:51:42.866Z,85.49
2022-12-24T05:52:44.413Z,85.36
2022-12-24T05:53:47.576Z,85.41
2022-12-24T05:54:50.488Z,85.48
2022-12-24T05:55:53.019Z,85.30
2022-12-24T05:56:54.534Z,85.32
2022-12-24T05:57:57.037Z,85.10
2022-12-24T05:58:58.782Z,85.25
2022-12-24T06:00:01.278Z,85.11
2022-12-24T06:01:05.865Z,85.11
2022-12-24T06:02:08.542Z,85.12
2022-12-24T06:03:10.253Z,85.35
2022-12-24T06:04:12.766Z,85.17
2022-12-24T06:05:14.527Z,85.37
2022-12-24T06:06:20.749Z,85.13
2022-12-24T06:07:22.346Z,85.23
2022-12-24T06:08:24.836Z,85.21
2022-12-24T06:09:26.413Z,85.27
2022-12-24T06:10:30.229Z,85.21
2022-12-24T06:11:32.830Z,85.26
2022-12-24T06:12:34.514Z,85.13
2022-12-24T06:13:37.254Z,85.09
2022-12-24T06:14:38.821Z,85.11
2022-12-24T06:15:41.360Z,85.19
2022-12-24T06:16:42.910Z,85.33
2022-12-24T06:17:45.423Z,85.38
2022-12-24T06:18:47.382Z,85.36
2022-12-24T06:19:49.901Z,85.38
2022-12-24T06:20:51.862Z,85.40
2022-12-24T06:21:54.519Z,85.41
2022-12-24T06:22:56.281Z,85.41
2022-12-24T06:23:59.226Z,85.55
2022-12-24T06:25:01.138Z,85.55
2022-12-24T06:26:07.093Z,85.57
2022-12-24T06:27:08.671Z,85.64
2022-12-24T06:28:11.233Z,85.64
2022-12-24T06:29:12.765Z,85.37
2022-12-24T06:30:18.369Z,85.63
2022-12-24T06:31:22.565Z,85.57
2022-12-24T06:32:27.591Z,85.63
2022-12-24T06:33:30.523Z,85.63
2022-12-24T06:34:33.021Z,85.63
2022-12-24T06:35:34.752Z,85.62
2022-12-24T06:36:37.308Z,85.76
2022-12-24T06:37:38.847Z,85.57
2022-12-24T06:38:41.348Z,85.43
2022-12-24T06:39:42.955Z,85.56
2022-12-24T06:40:47.277Z,85.59
2022-12-24T06:41:50.155Z,85.43
2022-12-24T06:42:52.748Z,85.64
2022-12-24T06:43:54.315Z,85.71
2022-12-24T06:44:58.840Z,85.77
2022-12-24T06:46:04.946Z,85.55
2022-12-24T06:47:07.885Z,85.55
2022-12-24T06:48:09.443Z,85.47
2022-12-24T06:49:11.921Z,85.52
2022-12-24T06:50:13.473Z,85.60
2022-12-24T06:51:19.555Z,85.72
2022-12-24T06:52:21.126Z,85.71
2022-12-24T06:53:24.045Z,85.60
2022-12-24T06:54:25.686Z,85.71
2022-12-24T06:55:28.347Z,85.58
2022-12-24T06:56:30.279Z,85.61
2022-12-24T06:57:34.134Z,85.67
2022-12-24T06:58:36.265Z,85.59
2022-12-24T06:59:38.793Z,85.67
2022-12-24T07:00:40.527Z,85.81
2022-12-24T07:01:48.616Z,85.45
2022-12-24T07:02:50.758Z,85.78
2022-12-24T07:03:53.416Z,85.69
2022-12-24T07:04:55.005Z,85.75
2022-12-24T07:05:57.582Z,85.69
2022-12-24T07:06:59.217Z,85.59
2022-12-24T07:08:02.013Z,85.67
2022-12-24T07:09:04.002Z,85.51
2022-12-24T07:10:13.136Z,85.79
2022-12-24T07:11:14.754Z,85.54
2022-12-24T07:12:17.357Z,85.39
2022-12-24T07:13:20.373Z,85.74
2022-12-24T07:14:22.894Z,85.70
2022-12-24T07:15:24.504Z,85.68
2022-12-24T07:16:27.131Z,85.89
2022-12-24T07:17:28.924Z,85.62
2022-12-24T07:18:32.272Z,85.65
2022-12-24T07:19:34.437Z,85.67
2022-12-24T07:20:37.366Z,85.68
2022-12-24T07:21:38.912Z,85.84
2022-12-24T07:22:41.455Z,85.73
2022-12-24T07:23:43.210Z,85.72
2022-12-24T07:24:45.731Z,85.77
2022-12-24T07:25:47.327Z,85.95
2022-12-24T07:26:49.856Z,85.71
2022-12-24T07:27:51.418Z,85.68
2022-12-24T07:28:55.368Z,85.55
2022-12-24T07:29:56.885Z,85.65
2022-12-24T07:31:00.218Z,85.92
2022-12-24T07:32:01.882Z,85.74
2022-12-24T07:33:04.669Z,85.74
2022-12-24T07:34:06.249Z,86.05
2022-12-24T07:35:10.004Z,85.99
2022-12-24T07:36:18.480Z,86.15
2022-12-24T07:37:21.245Z,85.98
2022-12-24T07:38:23.600Z,86.29
2022-12-24T07:39:26.654Z,85.94
2022-12-24T07:40:28.286Z,86.07
2022-12-24T07:41:33.825Z,85.99
2022-12-24T07:42:37.946Z,86.11
2022-12-24T07:43:40.575Z,86.28
2022-12-24T07:44:43.517Z,86.17
2022-12-24T07:45:46.149Z,86.13
2022-12-24T07:46:48.158Z,86.09
2022-12-24T07:47:50.754Z,86.21
2022-12-24T07:48:52.289Z,86.05
2022-12-24T07:49:54.801Z,86.15
2022-12-24T07:50:57.267Z,86.20
2022-12-24T07:51:59.769Z,86.22
2022-12-24T07:53:01.276Z,86.11
2022-12-24T07:54:06.404Z,86.27
2022-12-24T07:55:08.852Z,86.26
2022-12-24T07:56:13.163Z,86.15
2022-12-24T07:57:18.102Z,86.20
2022-12-24T07:58:20.811Z,86.20
2022-12-24T07:59:22.540Z,86.17
2022-12-24T08:00:26.406Z,86.48
2022-12-24T08:01:28.102Z,86.22
2022-12-24T08:02:31.361Z,86.33
2022-12-24T08:03:33.157Z,86.39
2022-12-24T08:04:36.398Z,86.26
2022-12-24T08:05:38.060Z,86.37
2022-12-24T08:06:40.836Z,86.41
2022-12-24T08:07:42.858Z,86.32
2022-12-24T08:08:45.351Z,86.32
2022-12-24T08:09:46.982Z,86.17
2022-12-24T08:10:49.921Z,86.25
2022-12-24T08:11:52.760Z,86.19
2022-12-24T08:12:55.460Z,86.46
2022-12-24T08:13:57.145Z,86.32
2022-12-24T08:14:59.717Z,86.59
2022-12-24T08:16:02.706Z,86.40
2022-12-24T08:17:05.226Z,86.24
2022-12-24T08:18:06.857Z,86.40
2022-12-24T08:19:09.468Z,86.29
2022-12-24T08:20:11.440Z,86.66
2022-12-24T08:21:14.048Z,86.36
2022-12-24T08:22:15.658Z,86.51
2022-12-24T08:23:18.200Z,86.52
2022-12-24T08:24:19.793Z,86.35
2022-12-24T08:25:22.367Z,86.48
2022-12-24T08:26:24.482Z,86.36
2022-12-24T08:27:27.264Z,86.48
2022-12-24T08:28:30.176Z,86.36
2022-12-24T08:29:32.762Z,86.47
2022-12-24T08:30:34.627Z,86.35
2022-12-24T08:31:41.249Z,86.38
2022-12-24T08:32:54.596Z,86.50
2022-12-24T08:33:57.233Z,86.28
2022-12-24T08:34:58.980Z,86.25
2022-12-24T08:36:02.413Z,86.07
2022-12-24T08:37:05.346Z,86.29
2022-12-24T08:38:07.014Z,86.14
2022-12-24T08:39:09.646Z,86.23
2022-12-24T08:40:12.103Z,86.19
2022-12-24T08:41:14.657Z,86.10
2022-12-24T08:42:16.261Z,86.25
2022-12-24T08:43:18.972Z,86.09
2022-12-24T08:44:20.576Z,85.72
2022-12-24T08:45:23.210Z,86.07
2022-12-24T08:46:27.706Z,85.76
2022-12-24T08:47:31.453Z,86.07
2022-12-24T08:48:35.117Z,85.90
2022-12-24T08:49:36.956Z,85.77
2022-12-24T08:50:40.760Z,85.64
2022-12-24T08:51:42.350Z,85.47
2022-12-24T08:52:44.938Z,85.65
2022-12-24T08:53:46.760Z,85.71
2022-12-24T08:54:49.254Z,85.48
2022-12-24T08:55:56.005Z,85.52
2022-12-24T08:56:58.917Z,85.30
2022-12-24T08:58:00.683Z,85.28
2022-12-24T08:59:03.268Z,85.26
2022-12-24T09:00:06.752Z,85.36
2022-12-24T09:01:16.274Z,85.30
2022-12-24T09:02:18.079Z,85.47
2022-12-24T09:03:27.344Z,85.17
2022-12-24T09:04:29.701Z,85.26
2022-12-24T09:05:32.867Z,85.24
2022-12-24T09:06:35.631Z,85.07
2022-12-24T09:07:38.683Z,85.21
2022-12-24T09:08:40.251Z,85.21
2022-12-24T09:09:42.795Z,85.01
2022-12-24T09:10:44.385Z,85.13
2022-12-24T09:11:47.092Z,84.92
2022-12-24T09:12:48.642Z,84.94
2022-12-24T09:13:51.174Z,84.84
2022-12-24T09:14:58.168Z,84.83
2022-12-24T09:16:06.336Z,84.88
2022-12-24T09:17:08.027Z,84.71
2022-12-24T09:18:10.616Z,84.55
2022-12-24T09:19:13.520Z,84.79
2022-12-24T09:20:16.033Z,84.65
2022-12-24T09:21:18.647Z,84.70
2022-12-24T09:22:21.300Z,84.95
2022-12-24T09:23:22.983Z,84.76
2022-12-24T09:24:26.089Z,84.74
2022-12-24T09:25:28.812Z,84.70
2022-12-24T09:26:31.874Z,84.66
2022-12-24T09:27:34.520Z,84.84
2022-12-24T09:28:36.286Z,84.76
2022-12-24T09:29:40.494Z,84.99
2022-12-24T09:30:41.994Z,84.68
2022-12-24T09:31:44.575Z,85.00
2022-12-24T09:32:46.180Z,84.93
2022-12-24T09:33:49.772Z,85.10
2022-12-24T09:34:52.806Z,84.85
2022-12-24T09:35:55.732Z,84.86
2022-12-24T09:36:57.397Z,84.85
2022-12-24T09:38:03.617Z,84.96
2022-12-24T09:39:05.195Z,85.29
2022-12-24T09:40:09.236Z,84.92
2022-12-24T09:41:13.161Z,85.35
2022-12-24T09:42:26.977Z,85.05
2022-12-24T09:43:33.837Z,84.88
2022-12-24T09:44:43.680Z,84.88
2022-12-24T09:45:52.314Z,84.98
2022-12-24T09:46:55.686Z,85.04
2022-12-24T09:48:03.160Z,85.07
2022-12-24T09:49:10.318Z,84.84
2022-12-24T09:50:28.065Z,84.79
2022-12-24T09:51:35.036Z,84.64
2022-12-24T09:52:47.592Z,84.61
2022-12-24T09:53:58.054Z,84.56
2022-12-24T09:55:08.059Z,84.60
2022-12-24T09:56:15.396Z,84.44
2022-12-24T09:57:25.853Z,84.31
2022-12-24T09:58:34.817Z,84.23
2022-12-24T09:59:42.337Z,84.18
2022-12-24T10:00:49.882Z,84.39
2022-12-24T10:01:54.693Z,84.41
2022-12-24T10:02:57.948Z,84.21
2022-12-24T10:04:02.885Z,84.23
2022-12-24T10:05:15.218Z,84.02
2022-12-24T10:06:29.335Z,84.08
2022-12-24T10:07:42.566Z,83.84
2022-12-24T10:08:57.348Z,84.01
2022-12-24T10:10:07.549Z,84.13
2022-12-24T10:11:19.068Z,84.07
2022-12-24T10:12:25.686Z,84.05
2022-12-24T10:13:39.627Z,83.94
2022-12-24T10:14:52.993Z,83.83
2022-12-24T10:16:01.617Z,83.86
2022-12-24T10:17:22.966Z,83.64
2022-12-24T10:18:34.801Z,83.78
2022-12-24T10:19:48.035Z,83.83
2022-12-24T10:20:56.985Z,83.85
2022-12-24T10:22:09.144Z,83.76
2022-12-24T10:23:18.449Z,83.84
2022-12-24T10:24:25.537Z,83.52
2022-12-24T10:25:33.254Z,83.73
2022-12-24T10:26:44.643Z,83.67
2022-12-24T10:27:46.761Z,83.59
2022-12-24T10:29:02.635Z,83.52
2022-12-24T10:30:17.247Z,83.74
2022-12-24T10:31:24.447Z,83.69
2022-12-24T10:32:30.075Z,83.74
2022-12-24T10:33:38.590Z,83.73
2022-12-24T10:34:44.046Z,83.63
2022-12-24T10:35:52.120Z,83.78
2022-12-24T10:36:54.782Z,83.83
2022-12-24T10:37:58.290Z,83.62
2022-12-24T10:39:01.198Z,83.81
2022-12-24T10:40:03.838Z,83.52
2022-12-24T10:41:07.693Z,83.78
2022-12-24T10:42:11.432Z,83.83
2022-12-24T10:43:16.814Z,83.94
2022-12-24T10:44:22.329Z,83.76
2022-12-24T10:45:31.966Z,83.93
2022-12-24T10:46:39.852Z,83.94
2022-12-24T10:47:43.964Z,83.99
2022-12-24T10:48:52.084Z,83.83
2022-12-24T10:50:01.174Z,83.89
2022-12-24T10:51:07.604Z,83.77
2022-12-24T10:52:13.640Z,83.88
2022-12-24T10:53:21.720Z,83.70
2022-12-24T10:54:27.999Z,83.82
2022-12-24T10:55:29.829Z,83.70
2022-12-24T10:56:32.328Z,83.87
2022-12-24T10:57:34.654Z,83.87
2022-12-24T10:58:37.690Z,83.82
2022-12-24T10:59:49.290Z,83.77
2022-12-24T11:00:55.004Z,83.67
2022-12-24T11:01:58.922Z,83.76
2022-12-24T11:03:23.042Z,83.78
2022-12-24T11:04:28.123Z,83.54
2022-12-24T11:05:32.288Z,83.75
2022-12-24T11:06:53.998Z,83.81
2022-12-24T11:08:14.515Z,83.75
2022-12-24T11:09:24.032Z,83.63
2022-12-24T11:10:25.789Z,83.66
2022-12-24T11:11:35.835Z,83.58
2022-12-24T11:12:40.550Z,83.46
2022-12-24T11:13:46.039Z,83.42
2022-12-24T11:14:48.301Z,83.35
2022-12-24T11:16:00.374Z,83.25
2022-12-24T11:17:03.339Z,83.33
2022-12-24T11:18:13.429Z,83.53
2022-12-24T11:19:19.555Z,83.23
2022-12-24T11:20:26.685Z,83.32
2022-12-24T11:21:32.307Z,83.13
2022-12-24T11:22:33.974Z,83.20
2022-12-24T11:23:36.669Z,83.11
2022-12-24T11:24:43.742Z,83.04
2022-12-24T11:25:52.009Z,82.82
2022-12-24T11:26:54.025Z,82.94
2022-12-24T11:27:57.264Z,82.67
2022-12-24T11:29:13.218Z,82.57
2022-12-24T11:30:23.986Z,82.24
2022-12-24T11:31:27.056Z,82.61
2022-12-24T11:32:28.659Z,82.30
2022-12-24T11:33:32.579Z,81.97
2022-12-24T11:34:34.529Z,82.03
2022-12-24T11:35:42.771Z,81.56
2022-12-24T11:36:44.378Z,81.41
2022-12-24T11:37:46.868Z,81.37
2022-12-24T11:38:54.414Z,81.21
2022-12-24T11:40:01.190Z,80.96
2022-12-24T11:41:14.108Z,80.66
2022-12-24T11:42:32.335Z,80.88
2022-12-24T11:43:47.321Z,80.57
2022-12-24T11:44:50.549Z,80.63
2022-12-24T11:45:55.268Z,80.59
2022-12-24T11:46:57.237Z,80.54
2022-12-24T11:48:01.231Z,80.54
2022-12-24T11:49:16.882Z,80.50
2022-12-24T11:50:28.415Z,80.47
2022-12-24T11:51:30.049Z,80.64
2022-12-24T11:52:33.255Z,80.35
2022-12-24T11:53:41.322Z,79.97
2022-12-24T11:54:49.851Z,80.60
2022-12-24T11:55:56.550Z,80.17
2022-12-24T11:57:01.541Z,80.22
2022-12-24T11:58:14.682Z,79.99
2022-12-24T11:59:24.978Z,80.06
2022-12-24T12:00:27.431Z,79.96
2022-12-24T12:01:35.263Z,79.99
2022-12-24T12:02:41.216Z,79.99
2022-12-24T12:03:48.251Z,79.93
2022-12-24T12:04:54.056Z,79.85
2022-12-24T12:05:59.335Z,79.91
2022-12-24T12:07:08.273Z,79.52
2022-12-24T12:08:19.306Z,79.50
2022-12-24T12:09:23.623Z,79.66
2022-12-24T12:10:29.601Z,79.08
2022-12-24T12:11:33.813Z,79.38
2022-12-24T12:12:41.929Z,79.15
2022-12-24T12:13:47.268Z,79.32
2022-12-24T12:14:52.830Z,78.91
2022-12-24T12:16:08.722Z,78.80
2022-12-24T12:17:21.649Z,78.83
2022-12-24T12:18:29.653Z,78.48
2022-12-24T12:19:38.287Z,78.41
2022-12-24T12:20:46.104Z,78.48
2022-12-24T12:21:49.713Z,78.56
2022-12-24T12:23:06.604Z,78.39
2022-12-24T12:24:16.799Z,78.39
2022-12-24T12:25:34.953Z,78.05
2022-12-24T12:26:41.846Z,78.11
2022-12-24T12:27:46.355Z,78.32
2022-12-24T12:28:54.597Z,78.25
2022-12-24T12:30:02.342Z,78.02
2022-12-24T12:31:16.086Z,78.22
2022-12-24T12:32:28.454Z,78.20
2022-12-24T12:33:38.747Z,78.12
2022-12-24T12:34:44.097Z,78.35
2022-12-24T12:35:48.664Z,78.25
2022-12-24T12:36:54.311Z,78.27
2022-12-24T12:38:02.071Z,77.74
2022-12-24T12:39:03.809Z,77.91
2022-12-24T12:40:15.127Z,77.69
2022-12-24T12:41:29.145Z,77.65
2022-12-24T12:42:35.882Z,77.45
2022-12-24T12:44:05.049Z,77.45
2022-12-24T12:45:29.344Z,77.59
2022-12-24T12:46:44.525Z,77.50
2022-12-24T12:48:00.905Z,77.50
2022-12-24T12:49:18.802Z,77.81
2022-12-24T12:50:25.543Z,77.46
2022-12-24T12:51:37.506Z,77.57
2022-12-24T12:52:50.089Z,77.24
2022-12-24T12:54:06.939Z,77.36
2022-12-24T12:55:24.754Z,77.02
2022-12-24T12:56:31.831Z,77.34
2022-12-24T12:57:45.695Z,77.30
2022-12-24T12:58:53.841Z,77.16
2022-12-24T13:00:00.719Z,77.22
2022-12-24T13:01:13.170Z,77.22
2022-12-24T13:02:32.516Z,76.63
2022-12-24T13:03:58.115Z,75.91
2022-12-24T13:05:34.133Z,75.93
2022-12-24T13:07:10.075Z,75.61
2022-12-24T13:08:32.676Z,75.36
2022-12-24T13:10:08.772Z,75.43
2022-12-24T13:11:27.682Z,75.46
2022-12-24T13:12:41.812Z,75.05
2022-12-24T13:13:57.617Z,75.16
2022-12-24T13:15:25.867Z,74.88
2022-12-24T13:16:42.028Z,74.78
2022-12-24T13:18:02.351Z,74.79
2022-12-24T13:19:17.343Z,74.68
2022-12-24T13:20:25.241Z,74.79
2022-12-24T13:21:30.939Z,74.88
2022-12-24T13:22:32.556Z,74.84
2022-12-24T13:23:35.158Z,74.96
2022-12-24T13:24:36.817Z,74.96
2022-12-24T13:25:42.335Z,74.87
2022-12-24T13:27:04.160Z,74.74
2022-12-24T13:28:17.834Z,74.96
2022-12-24T13:29:41.949Z,74.60
2022-12-24T13:31:15.714Z,74.63
2022-12-24T13:32:50.812Z,74.36
2022-12-24T13:33:55.709Z,74.29
2022-12-24T13:35:02.955Z,74.16
2022-12-24T13:36:06.588Z,74.03
2022-12-24T13:37:21.688Z,73.93
2022-12-24T13:38:42.666Z,73.82
2022-12-24T13:40:15.765Z,73.47
2022-12-24T13:41:57.802Z,73.65
2022-12-24T13:43:12.288Z,73.65
2022-12-24T13:44:20.210Z,73.51
2022-12-24T13:45:44.574Z,73.73
2022-12-24T13:46:58.864Z,73.57
2022-12-24T13:48:09.307Z,73.58
2022-12-24T13:49:12.256Z,73.48
2022-12-24T13:50:23.452Z,73.56
2022-12-24T13:51:26.075Z,73.21
2022-12-24T13:52:31.696Z,73.58
2022-12-24T13:53:39.616Z,73.40
2022-12-24T13:54:44.745Z,73.42
2022-12-24T13:55:51.481Z,73.23
2022-12-24T13:56:54.169Z,73.13
2022-12-24T13:58:00.646Z,73.00
2022-12-24T13:59:17.084Z,72.79
2022-12-24T14:00:33.351Z,72.67
2022-12-24T14:01:39.863Z,72.75
2022-12-24T14:02:50.358Z,72.58
2022-12-24T14:03:58.114Z,72.56
2022-12-24T14:05:05.647Z,72.31
2022-12-24T14:06:11.476Z,72.54
2022-12-24T14:07:20.095Z,72.39
2022-12-24T14:08:34.242Z,72.47